createdAt,value
2017-11-14T00:00:21.338Z,0
2017-11-14T00:01:21.330Z,0
2017-11-14T00:02:21.302Z,0
2017-11-14T00:03:21.308Z,0
2017-11-14T00:04:21.266Z,0
2017-11-14T00:05:21.246Z,0
2017-11-14T00:06:21.227Z,0
2017-11-14T00:07:21.566Z,0
2017-11-14T00:08:21.538Z,0
2017-11-14T00:09:21.179Z,0
2017-11-14T00:10:21.204Z,0
2017-11-14T00:11:21.140Z,0
2017-11-14T00:12:21.478Z,0
2017-11-14T00:13:21.445Z,0
2017-11-14T00:14:21.086Z,0
2017-11-14T00:15:21.409Z,0
2017-11-14T00:16:21.050Z,0
2017-11-14T00:17:21.373Z,0
2017-11-14T00:18:21.011Z,0
2017-11-14T00:19:21.000Z,0
2017-11-14T00:20:21.351Z,0
2017-11-14T00:21:20.956Z,0
2017-11-14T00:22:20.947Z,0
2017-11-14T00:23:21.266Z,0
2017-11-14T00:24:20.900Z,0
2017-11-14T00:25:20.883Z,0
2017-11-14T00:26:20.875Z,0
2017-11-14T00:27:21.188Z,0
2017-11-14T00:28:20.975Z,0
2017-11-14T00:29:21.153Z,0
2017-11-14T00:30:21.941Z,0
2017-11-14T00:31:20.773Z,0
2017-11-14T00:32:21.096Z,0
2017-11-14T00:33:20.743Z,0
2017-11-14T00:34:20.714Z,0
2017-11-14T00:35:20.698Z,0
2017-11-14T00:36:20.680Z,0
2017-11-14T00:37:20.660Z,0
2017-11-14T00:38:20.994Z,0
2017-11-14T00:39:20.624Z,0
2017-11-14T00:40:20.607Z,0
2017-11-14T00:41:20.931Z,0
2017-11-14T00:42:20.566Z,0
2017-11-14T00:43:20.898Z,0
2017-11-14T00:44:20.531Z,0
2017-11-14T00:45:20.520Z,0
2017-11-14T00:46:20.508Z,0
2017-11-14T00:47:20.475Z,0
2017-11-14T00:48:20.463Z,0
2017-11-14T00:49:20.445Z,0
2017-11-14T00:50:20.764Z,0
2017-11-14T00:51:20.753Z,0
2017-11-14T00:52:20.387Z,0
2017-11-14T00:53:20.388Z,0
2017-11-14T00:54:20.350Z,0
2017-11-14T00:55:20.702Z,0
2017-11-14T00:56:20.657Z,0
2017-11-14T00:57:20.297Z,0
2017-11-14T00:58:20.274Z,0
2017-11-14T00:59:20.254Z,0
2017-11-14T01:00:20.239Z,0
2017-11-14T01:01:20.228Z,0
2017-11-14T01:02:20.201Z,0
2017-11-14T01:03:20.199Z,0
2017-11-14T01:04:20.522Z,0
2017-11-14T01:05:20.489Z,0
2017-11-14T01:06:20.129Z,0
2017-11-14T01:07:20.112Z,0
2017-11-14T01:08:20.433Z,0
2017-11-14T01:09:20.072Z,0
2017-11-14T01:10:20.077Z,0
2017-11-14T01:11:20.037Z,0
2017-11-14T01:12:20.377Z,0
2017-11-14T01:13:20.006Z,0
2017-11-14T01:14:20.328Z,0
2017-11-14T01:15:19.966Z,0
2017-11-14T01:16:20.291Z,0
2017-11-14T01:17:19.925Z,0
2017-11-14T01:18:20.267Z,0
2017-11-14T01:19:19.889Z,0
2017-11-14T01:20:22.121Z,0
2017-11-14T01:21:19.856Z,0
2017-11-14T01:22:19.836Z,0
2017-11-14T01:23:20.161Z,0
2017-11-14T01:24:19.797Z,0
2017-11-14T01:25:20.121Z,0
2017-11-14T01:26:19.769Z,0
2017-11-14T01:27:19.744Z,0
2017-11-14T01:28:20.065Z,0
2017-11-14T01:29:19.705Z,0
2017-11-14T01:30:20.032Z,0
2017-11-14T01:31:19.678Z,0
2017-11-14T01:32:19.650Z,0
2017-11-14T01:33:19.973Z,0
2017-11-14T01:34:19.612Z,0
2017-11-14T01:35:19.600Z,0
2017-11-14T01:36:19.923Z,0
2017-11-14T01:37:19.562Z,0
2017-11-14T01:38:19.885Z,0
2017-11-14T01:39:19.866Z,0
2017-11-14T01:40:19.545Z,0
2017-11-14T01:41:19.997Z,0
2017-11-14T01:42:19.809Z,0
2017-11-14T01:43:19.453Z,0
2017-11-14T01:44:19.772Z,0
2017-11-14T01:45:19.410Z,0
2017-11-14T01:46:19.390Z,0
2017-11-14T01:47:19.388Z,0
2017-11-14T01:48:19.354Z,0
2017-11-14T01:49:19.335Z,0
2017-11-14T01:50:19.319Z,0
2017-11-14T01:51:19.642Z,0
2017-11-14T01:52:19.279Z,0
2017-11-14T01:53:19.262Z,0
2017-11-14T01:54:19.594Z,0
2017-11-14T01:55:19.590Z,0
2017-11-14T01:56:19.206Z,0
2017-11-14T01:57:19.189Z,0
2017-11-14T01:58:19.522Z,0
2017-11-14T01:59:19.149Z,0
2017-11-14T02:00:19.130Z,0
2017-11-14T02:01:19.455Z,0
2017-11-14T02:02:19.442Z,0
2017-11-14T02:03:19.421Z,0
2017-11-14T02:04:19.412Z,0
2017-11-14T02:05:19.045Z,0
2017-11-14T02:06:19.399Z,0
2017-11-14T02:07:19.348Z,0
2017-11-14T02:08:18.987Z,0
2017-11-14T02:09:18.964Z,0
2017-11-14T02:10:19.294Z,0
2017-11-14T02:11:19.268Z,0
2017-11-14T02:12:18.908Z,0
2017-11-14T02:13:19.240Z,0
2017-11-14T02:14:18.872Z,0
2017-11-14T02:15:18.855Z,0
2017-11-14T02:16:18.843Z,0
2017-11-14T02:17:18.837Z,0
2017-11-14T02:18:19.149Z,0
2017-11-14T02:19:18.779Z,0
2017-11-14T02:20:18.762Z,0
2017-11-14T02:21:18.747Z,0
2017-11-14T02:22:19.079Z,0
2017-11-14T02:23:18.703Z,0
2017-11-14T02:24:18.689Z,0
2017-11-14T02:25:18.686Z,0
2017-11-14T02:26:18.650Z,0
2017-11-14T02:27:18.631Z,0
2017-11-14T02:28:18.956Z,0
2017-11-14T02:29:18.595Z,0
2017-11-14T02:30:18.923Z,0
2017-11-14T02:31:18.900Z,0
2017-11-14T02:32:18.882Z,0
2017-11-14T02:33:18.877Z,0
2017-11-14T02:34:18.506Z,0
2017-11-14T02:35:18.825Z,0
2017-11-14T02:36:18.466Z,0
2017-11-14T02:37:18.454Z,0
2017-11-14T02:38:25.835Z,0
2017-11-14T02:39:18.755Z,0
2017-11-14T02:40:18.390Z,0
2017-11-14T02:41:18.747Z,0
2017-11-14T02:42:18.357Z,0
2017-11-14T02:43:18.345Z,0
2017-11-14T02:44:18.321Z,0
2017-11-14T02:45:18.645Z,0
2017-11-14T02:46:18.303Z,0
2017-11-14T02:47:18.268Z,0
2017-11-14T02:48:18.249Z,0
2017-11-14T02:49:18.575Z,0
2017-11-14T02:50:18.580Z,0
2017-11-14T02:51:18.196Z,0
2017-11-14T02:52:18.193Z,0
2017-11-14T02:53:18.175Z,0
2017-11-14T02:54:18.138Z,0
2017-11-14T02:55:18.120Z,0
2017-11-14T02:56:18.123Z,0
2017-11-14T02:57:18.088Z,0
2017-11-14T02:58:18.070Z,0
2017-11-14T02:59:18.398Z,0
2017-11-14T03:00:18.031Z,0
2017-11-14T03:01:18.015Z,0
2017-11-14T03:02:18.357Z,0
2017-11-14T03:03:17.981Z,0
2017-11-14T03:04:17.964Z,0
2017-11-14T03:05:17.941Z,0
2017-11-14T03:06:17.927Z,0
2017-11-14T03:07:18.255Z,0
2017-11-14T03:08:18.235Z,0
2017-11-14T03:09:17.874Z,0
2017-11-14T03:10:18.220Z,0
2017-11-14T03:11:17.843Z,0
2017-11-14T03:12:17.864Z,0
2017-11-14T03:13:17.803Z,0
2017-11-14T03:14:18.131Z,0
2017-11-14T03:15:17.770Z,0
2017-11-14T03:16:17.759Z,0
2017-11-14T03:17:17.735Z,0
2017-11-14T03:18:18.058Z,0
2017-11-14T03:19:18.041Z,0
2017-11-14T03:20:17.680Z,0
2017-11-14T03:21:17.662Z,0
2017-11-14T03:22:17.990Z,0
2017-11-14T03:23:17.627Z,0
2017-11-14T03:24:17.954Z,0
2017-11-14T03:25:17.595Z,0
2017-11-14T03:26:17.919Z,0
2017-11-14T03:27:17.908Z,0
2017-11-14T03:28:17.544Z,0
2017-11-14T03:29:17.907Z,0
2017-11-14T03:30:17.859Z,0
2017-11-14T03:31:17.520Z,0
2017-11-14T03:32:17.883Z,0
2017-11-14T03:33:17.828Z,0
2017-11-14T03:34:17.440Z,0
2017-11-14T03:35:17.762Z,0
2017-11-14T03:36:17.402Z,0
2017-11-14T03:37:17.389Z,0
2017-11-14T03:38:17.730Z,0
2017-11-14T03:39:17.353Z,0
2017-11-14T03:40:17.336Z,0
2017-11-14T03:41:17.700Z,0
2017-11-14T03:42:17.311Z,0
2017-11-14T03:43:17.284Z,0
2017-11-14T03:44:17.624Z,0
2017-11-14T03:45:17.609Z,0
2017-11-14T03:46:17.235Z,0
2017-11-14T03:47:17.560Z,0
2017-11-14T03:48:17.199Z,0
2017-11-14T03:49:17.182Z,0
2017-11-14T03:50:17.165Z,0
2017-11-14T03:51:17.490Z,0
2017-11-14T03:52:17.486Z,0
2017-11-14T03:53:17.114Z,0
2017-11-14T03:54:17.094Z,0
2017-11-14T03:55:17.161Z,0
2017-11-14T03:56:17.403Z,0
2017-11-14T03:57:17.044Z,0
2017-11-14T03:58:17.367Z,0
2017-11-14T03:59:17.013Z,0
2017-11-14T04:00:17.336Z,0
2017-11-14T04:01:17.319Z,0
2017-11-14T04:02:16.975Z,0
2017-11-14T04:03:16.942Z,0
2017-11-14T04:04:17.266Z,0
2017-11-14T04:05:17.247Z,0
2017-11-14T04:06:16.891Z,0
2017-11-14T04:07:17.214Z,0
2017-11-14T04:08:16.857Z,0
2017-11-14T04:09:16.838Z,0
2017-11-14T04:10:16.821Z,0
2017-11-14T04:11:17.145Z,0
2017-11-14T04:12:17.142Z,0
2017-11-14T04:13:16.773Z,0
2017-11-14T04:14:16.753Z,0
2017-11-14T04:15:16.737Z,0
2017-11-14T04:16:16.720Z,0
2017-11-14T04:17:17.046Z,0
2017-11-14T04:18:16.687Z,0
2017-11-14T04:19:17.023Z,0
2017-11-14T04:20:17.008Z,0
2017-11-14T04:21:16.993Z,0
2017-11-14T04:22:16.618Z,0
2017-11-14T04:23:16.601Z,0
2017-11-14T04:24:16.585Z,0
2017-11-14T04:25:16.569Z,0
2017-11-14T04:26:16.551Z,0
2017-11-14T04:27:16.532Z,0
2017-11-14T04:28:16.873Z,0
2017-11-14T04:29:16.840Z,0
2017-11-14T04:30:16.845Z,0
2017-11-14T04:31:16.808Z,0
2017-11-14T04:32:16.467Z,0
2017-11-14T04:33:16.431Z,0
2017-11-14T04:34:16.431Z,0
2017-11-14T04:35:16.397Z,0
2017-11-14T04:36:16.380Z,0
2017-11-14T04:37:16.712Z,0
2017-11-14T04:38:16.690Z,0
2017-11-14T04:39:16.673Z,0
2017-11-14T04:40:16.314Z,0
2017-11-14T04:41:16.643Z,0
2017-11-14T04:42:16.642Z,0
2017-11-14T04:43:16.626Z,0
2017-11-14T04:44:16.587Z,0
2017-11-14T04:45:16.229Z,0
2017-11-14T04:46:16.219Z,0
2017-11-14T04:47:16.196Z,0
2017-11-14T04:48:16.531Z,0
2017-11-14T04:49:16.161Z,0
2017-11-14T04:50:16.146Z,0
2017-11-14T04:51:16.127Z,0
2017-11-14T04:52:16.109Z,0
2017-11-14T04:53:16.093Z,0
2017-11-14T04:54:16.077Z,0
2017-11-14T04:55:16.409Z,0
2017-11-14T04:56:16.053Z,0
2017-11-14T04:57:16.029Z,0
2017-11-14T04:58:16.367Z,0
2017-11-14T04:59:15.991Z,0
2017-11-14T05:00:15.974Z,0
2017-11-14T05:01:15.961Z,0
2017-11-14T05:02:16.288Z,0
2017-11-14T05:03:15.925Z,0
2017-11-14T05:04:15.908Z,0
2017-11-14T05:05:15.894Z,0
2017-11-14T05:06:16.240Z,0
2017-11-14T05:07:16.196Z,0
2017-11-14T05:08:16.185Z,0
2017-11-14T05:09:16.167Z,0
2017-11-14T05:10:15.805Z,0
2017-11-14T05:11:16.131Z,0
2017-11-14T05:12:16.121Z,0
2017-11-14T05:13:16.122Z,0
2017-11-14T05:14:16.088Z,0
2017-11-14T05:15:15.723Z,0
2017-11-14T05:16:16.048Z,0
2017-11-14T05:17:16.042Z,0
2017-11-14T05:18:15.672Z,0
2017-11-14T05:19:15.661Z,0
2017-11-14T05:20:15.635Z,0
2017-11-14T05:21:15.632Z,0
2017-11-14T05:22:15.602Z,0
2017-11-14T05:23:15.601Z,0
2017-11-14T05:24:15.575Z,0
2017-11-14T05:25:15.893Z,0
2017-11-14T05:26:15.887Z,0
2017-11-14T05:27:15.865Z,0
2017-11-14T05:28:15.846Z,0
2017-11-14T05:29:15.827Z,0
2017-11-14T05:30:15.468Z,0
2017-11-14T05:31:15.450Z,0
2017-11-14T05:32:15.435Z,0
2017-11-14T05:33:15.790Z,0
2017-11-14T05:34:15.400Z,0
2017-11-14T05:35:15.725Z,0
2017-11-14T05:36:15.367Z,0
2017-11-14T05:37:15.691Z,0
2017-11-14T05:38:15.676Z,0
2017-11-14T05:39:15.674Z,0
2017-11-14T05:40:15.297Z,0
2017-11-14T05:41:15.283Z,0
2017-11-14T05:42:15.618Z,0
2017-11-14T05:43:15.247Z,0
2017-11-14T05:44:15.233Z,0
2017-11-14T05:45:15.214Z,0
2017-11-14T05:46:15.197Z,0
2017-11-14T05:47:15.191Z,0
2017-11-14T05:48:15.513Z,0
2017-11-14T05:49:15.148Z,0
2017-11-14T05:50:15.130Z,0
2017-11-14T05:51:15.453Z,0
2017-11-14T05:52:15.095Z,0
2017-11-14T05:53:15.078Z,0
2017-11-14T05:54:15.061Z,0
2017-11-14T05:55:15.065Z,0
2017-11-14T05:56:15.028Z,0
2017-11-14T05:57:15.359Z,0
2017-11-14T05:58:15.339Z,0
2017-11-14T05:59:15.317Z,0
2017-11-14T06:00:15.304Z,0
2017-11-14T06:01:15.294Z,0
2017-11-14T06:02:14.929Z,0
2017-11-14T06:03:15.269Z,0
2017-11-14T06:04:14.890Z,0
2017-11-14T06:05:14.890Z,0
2017-11-14T06:06:14.857Z,0
2017-11-14T06:07:15.190Z,0
2017-11-14T06:08:14.822Z,0
2017-11-14T06:09:14.807Z,0
2017-11-14T06:10:14.790Z,0
2017-11-14T06:11:14.773Z,0
2017-11-14T06:12:15.106Z,0
2017-11-14T06:13:15.086Z,0
2017-11-14T06:14:14.724Z,0
2017-11-14T06:15:15.055Z,0
2017-11-14T06:16:15.076Z,0
2017-11-14T06:17:15.021Z,0
2017-11-14T06:18:15.025Z,0
2017-11-14T06:19:14.985Z,0
2017-11-14T06:20:14.642Z,0
2017-11-14T06:21:14.955Z,0
2017-11-14T06:22:14.930Z,0
2017-11-14T06:23:14.941Z,0
2017-11-14T06:24:14.554Z,0
2017-11-14T06:25:14.538Z,0
2017-11-14T06:26:14.518Z,0
2017-11-14T06:27:14.504Z,0
2017-11-14T06:28:14.496Z,0
2017-11-14T06:29:14.469Z,0
2017-11-14T06:30:14.795Z,0
2017-11-14T06:31:14.778Z,0
2017-11-14T06:32:14.763Z,0
2017-11-14T06:33:14.404Z,0
2017-11-14T06:34:14.385Z,0
2017-11-14T06:35:14.366Z,0
2017-11-14T06:36:14.349Z,0
2017-11-14T06:37:14.905Z,0
2017-11-14T06:38:14.315Z,0
2017-11-14T06:39:14.298Z,0
2017-11-14T06:40:14.282Z,0
2017-11-14T06:41:14.636Z,0
2017-11-14T06:42:14.595Z,0
2017-11-14T06:43:14.231Z,0
2017-11-14T06:44:14.556Z,0
2017-11-14T06:45:14.197Z,0
2017-11-14T06:46:14.180Z,0
2017-11-14T06:47:14.505Z,0
2017-11-14T06:48:14.146Z,0
2017-11-14T06:49:14.146Z,0
2017-11-14T06:50:14.110Z,0
2017-11-14T06:51:14.093Z,0
2017-11-14T06:52:14.080Z,0
2017-11-14T06:53:14.403Z,0
2017-11-14T06:54:14.042Z,0
2017-11-14T06:55:14.037Z,0
2017-11-14T06:56:14.354Z,0
2017-11-14T06:57:13.994Z,0
2017-11-14T06:58:13.975Z,0
2017-11-14T06:59:13.957Z,0
2017-11-14T07:00:13.965Z,0
2017-11-14T07:01:14.269Z,0
2017-11-14T07:02:13.911Z,0
2017-11-14T07:03:13.887Z,0
2017-11-14T07:04:13.873Z,0
2017-11-14T07:05:14.195Z,0
2017-11-14T07:06:13.850Z,0
2017-11-14T07:07:13.834Z,0
2017-11-14T07:08:14.150Z,0
2017-11-14T07:09:14.161Z,0
2017-11-14T07:10:13.768Z,0
2017-11-14T07:11:13.755Z,0
2017-11-14T07:12:14.084Z,0
2017-11-14T07:13:13.716Z,0
2017-11-14T07:14:13.706Z,0
2017-11-14T07:15:14.025Z,0
2017-11-14T07:16:14.008Z,0
2017-11-14T07:17:13.656Z,0
2017-11-14T07:18:13.987Z,0
2017-11-14T07:19:13.615Z,0
2017-11-14T07:20:13.615Z,0
2017-11-14T07:21:13.923Z,0
2017-11-14T07:22:13.563Z,0
2017-11-14T07:23:13.550Z,0
2017-11-14T07:24:13.872Z,0
2017-11-14T07:25:13.511Z,0
2017-11-14T07:26:13.845Z,0
2017-11-14T07:27:13.848Z,0
2017-11-14T07:28:13.459Z,0
2017-11-14T07:29:13.785Z,0
2017-11-14T07:30:13.425Z,0
2017-11-14T07:31:13.760Z,0
2017-11-14T07:32:13.388Z,0
2017-11-14T07:33:13.721Z,0
2017-11-14T07:34:13.357Z,0
2017-11-14T07:35:13.688Z,0
2017-11-14T07:36:13.322Z,0
2017-11-14T07:37:13.665Z,0
2017-11-14T07:38:13.306Z,0
2017-11-14T07:39:13.614Z,0
2017-11-14T07:40:13.256Z,0
2017-11-14T07:41:13.584Z,0
2017-11-14T07:42:13.216Z,0
2017-11-14T07:43:13.551Z,0
2017-11-14T07:44:13.183Z,0
2017-11-14T07:45:13.508Z,0
2017-11-14T07:46:13.148Z,0
2017-11-14T07:47:13.131Z,0
2017-11-14T07:48:13.478Z,0
2017-11-14T07:49:13.447Z,0
2017-11-14T07:50:13.077Z,0
2017-11-14T07:51:13.062Z,0
2017-11-14T07:52:13.042Z,0
2017-11-14T07:53:13.366Z,0
2017-11-14T07:54:13.014Z,0
2017-11-14T07:55:12.991Z,0
2017-11-14T07:56:13.316Z,0
2017-11-14T07:57:13.311Z,0
2017-11-14T07:58:13.283Z,0
2017-11-14T07:59:12.924Z,0
2017-11-14T08:00:12.906Z,0
2017-11-14T08:01:13.248Z,0
2017-11-14T08:02:13.216Z,0
2017-11-14T08:03:12.855Z,0
2017-11-14T08:04:13.183Z,0
2017-11-14T08:05:13.163Z,0
2017-11-14T08:06:13.165Z,0
2017-11-14T08:07:13.135Z,0
2017-11-14T08:08:12.782Z,0
2017-11-14T08:09:12.754Z,0
2017-11-14T08:10:12.737Z,0
2017-11-14T08:11:12.735Z,0
2017-11-14T08:12:12.722Z,0
2017-11-14T08:13:13.042Z,0
2017-11-14T08:14:13.038Z,0
2017-11-14T08:15:13.026Z,0
2017-11-14T08:16:12.638Z,0
2017-11-14T08:17:13.041Z,0
2017-11-14T08:18:12.954Z,0
2017-11-14T08:19:12.961Z,0
2017-11-14T08:20:12.579Z,0
2017-11-14T08:21:12.555Z,0
2017-11-14T08:22:12.902Z,0
2017-11-14T08:23:12.864Z,0
2017-11-14T08:24:12.846Z,0
2017-11-14T08:25:12.832Z,0
2017-11-14T08:26:12.473Z,0
2017-11-14T08:27:12.457Z,0
2017-11-14T08:28:12.788Z,0
2017-11-14T08:29:12.421Z,0
2017-11-14T08:30:12.405Z,0
2017-11-14T08:31:12.729Z,0
2017-11-14T08:32:12.713Z,0
2017-11-14T08:33:12.363Z,0
2017-11-14T08:34:12.337Z,0
2017-11-14T08:35:12.680Z,0
2017-11-14T08:36:12.656Z,0
2017-11-14T08:37:12.290Z,0
2017-11-14T08:38:12.624Z,0
2017-11-14T08:39:12.605Z,0
2017-11-14T08:40:12.257Z,0
2017-11-14T08:41:12.591Z,0
2017-11-14T08:42:12.549Z,0
2017-11-14T08:43:12.211Z,0
2017-11-14T08:44:12.519Z,0
2017-11-14T08:45:12.499Z,0
2017-11-14T08:46:12.143Z,0
2017-11-14T08:47:12.128Z,0
2017-11-14T08:48:12.451Z,0
2017-11-14T08:49:12.101Z,0
2017-11-14T08:50:12.419Z,0
2017-11-14T08:51:12.062Z,0
2017-11-14T08:52:12.387Z,0
2017-11-14T08:53:12.026Z,0
2017-11-14T08:54:12.012Z,0
2017-11-14T08:55:12.350Z,0
2017-11-14T08:56:12.356Z,0
2017-11-14T08:57:11.964Z,0
2017-11-14T08:58:12.297Z,0
2017-11-14T08:59:11.959Z,0
2017-11-14T09:00:12.261Z,0
2017-11-14T09:01:12.242Z,0
2017-11-14T09:02:12.231Z,0
2017-11-14T09:03:11.867Z,0
2017-11-14T09:04:11.857Z,0
2017-11-14T09:05:11.832Z,0
2017-11-14T09:06:11.820Z,0
2017-11-14T09:07:12.146Z,0
2017-11-14T09:08:11.792Z,0.28
2017-11-14T09:09:12.114Z,1.89
2017-11-14T09:10:11.755Z,2.27
2017-11-14T09:11:12.094Z,1.32
2017-11-14T09:12:12.073Z,0
2017-11-14T09:13:11.710Z,0
2017-11-14T09:14:12.042Z,0
2017-11-14T09:15:12.019Z,0
2017-11-14T09:16:12.002Z,0
2017-11-14T09:17:11.989Z,1.7
2017-11-14T09:18:11.628Z,2.55
2017-11-14T09:19:11.613Z,4.35
2017-11-14T09:20:11.596Z,5.21
2017-11-14T09:21:11.931Z,4.73
2017-11-14T09:22:11.610Z,8.04
2017-11-14T09:23:11.549Z,10.6
2017-11-14T09:24:11.533Z,13.26
2017-11-14T09:25:11.536Z,11.55
2017-11-14T09:26:11.854Z,10.13
2017-11-14T09:27:11.826Z,10.79
2017-11-14T09:28:11.471Z,10.13
2017-11-14T09:29:11.455Z,8.71
2017-11-14T09:30:11.441Z,6.63
2017-11-14T09:31:11.768Z,5.3
2017-11-14T09:32:11.757Z,5.3
2017-11-14T09:33:11.391Z,4.54
2017-11-14T09:34:11.379Z,4.45
2017-11-14T09:35:11.726Z,4.83
2017-11-14T09:36:11.347Z,5.96
2017-11-14T09:37:11.672Z,5.11
2017-11-14T09:38:11.676Z,7.57
2017-11-14T09:39:11.301Z,10.04
2017-11-14T09:40:11.285Z,12.32
2017-11-14T09:41:11.628Z,13.92
2017-11-14T09:42:11.252Z,12.22
2017-11-14T09:43:11.241Z,11.46
2017-11-14T09:44:11.223Z,10.89
2017-11-14T09:45:11.549Z,9.85
2017-11-14T09:46:11.193Z,10.52
2017-11-14T09:47:11.524Z,14.97
2017-11-14T09:48:11.506Z,17.14
2017-11-14T09:49:11.147Z,20.18
2017-11-14T09:50:11.131Z,21.03
2017-11-14T09:51:11.459Z,25.48
2017-11-14T09:52:11.472Z,24.35
2017-11-14T09:53:11.432Z,23.49
2017-11-14T09:54:11.071Z,25.29
2017-11-14T09:55:11.416Z,24.73
2017-11-14T09:56:11.393Z,23.49
2017-11-14T09:57:11.025Z,22.83
2017-11-14T09:58:11.014Z,25.39
2017-11-14T09:59:10.993Z,27.19
2017-11-14T10:00:10.989Z,28.99
2017-11-14T10:01:11.314Z,29.37
2017-11-14T10:02:11.296Z,28.7
2017-11-14T10:03:10.937Z,30.32
2017-11-14T10:04:10.919Z,30.32
2017-11-14T10:05:10.917Z,30.03
2017-11-14T10:06:10.895Z,27.76
2017-11-14T10:07:10.874Z,25.96
2017-11-14T10:08:11.204Z,24.54
2017-11-14T10:09:10.850Z,24.54
2017-11-14T10:10:10.851Z,28.23
2017-11-14T10:11:11.155Z,29.46
2017-11-14T10:12:11.168Z,32.4
2017-11-14T10:13:11.148Z,32.39
2017-11-14T10:14:10.770Z,28.8
2017-11-14T10:15:10.779Z,26.62
2017-11-14T10:16:11.081Z,24.52
2017-11-14T10:17:11.082Z,23.96
2017-11-14T10:18:10.712Z,23.1
2017-11-14T10:19:10.693Z,24.54
2017-11-14T10:20:10.679Z,25.96
2017-11-14T10:21:11.010Z,29.37
2017-11-14T10:22:11.011Z,26.81
2017-11-14T10:23:10.633Z,26.05
2017-11-14T10:24:10.616Z,24.44
2017-11-14T10:25:10.970Z,23.21
2017-11-14T10:26:10.587Z,23.97
2017-11-14T10:27:10.916Z,27.38
2017-11-14T10:28:10.922Z,30.03
2017-11-14T10:29:10.567Z,28.42
2017-11-14T10:30:10.878Z,28.04
2017-11-14T10:31:10.513Z,25.29
2017-11-14T10:32:10.497Z,27.19
2017-11-14T10:33:10.483Z,30.69
2017-11-14T10:34:10.813Z,30.32
2017-11-14T10:35:10.454Z,30.6
2017-11-14T10:36:10.798Z,31.93
2017-11-14T10:37:10.777Z,33.63
2017-11-14T10:38:10.415Z,36.85
2017-11-14T10:39:10.737Z,34.86
2017-11-14T10:40:10.726Z,33.06
2017-11-14T10:41:10.708Z,32.4
2017-11-14T10:42:10.696Z,32.78
2017-11-14T10:43:10.685Z,31.45
2017-11-14T10:44:10.319Z,30.13
2017-11-14T10:45:10.308Z,30.13
2017-11-14T10:46:10.312Z,29.65
2017-11-14T10:47:10.617Z,33.16
2017-11-14T10:48:10.620Z,32.78
2017-11-14T10:49:10.590Z,30.88
2017-11-14T10:50:10.232Z,29.56
2017-11-14T10:51:10.214Z,31.47
2017-11-14T10:52:10.211Z,30.43
2017-11-14T10:53:10.187Z,31.18
2017-11-14T10:54:10.172Z,32.7
2017-11-14T10:55:10.160Z,34.31
2017-11-14T10:56:10.144Z,34.78
2017-11-14T10:57:10.469Z,38.46
2017-11-14T10:58:10.125Z,36.21
2017-11-14T10:59:10.463Z,33.56
2017-11-14T11:00:10.429Z,31.47
2017-11-14T11:01:10.070Z,30.9
2017-11-14T11:02:10.057Z,30.52
2017-11-14T11:03:10.389Z,33.65
2017-11-14T11:04:10.026Z,33.08
2017-11-14T11:05:10.355Z,32.98
2017-11-14T11:06:10.339Z,31.09
2017-11-14T11:07:10.333Z,33.06
2017-11-14T11:08:09.969Z,32.12
2017-11-14T11:09:10.299Z,29.56
2017-11-14T11:10:09.948Z,27.19
2017-11-14T11:11:10.283Z,25.77
2017-11-14T11:12:09.912Z,25.39
2017-11-14T11:13:10.247Z,24.16
2017-11-14T11:14:10.223Z,25.86
2017-11-14T11:15:09.867Z,27.19
2017-11-14T11:16:09.854Z,28.61
2017-11-14T11:17:09.840Z,29.56
2017-11-14T11:18:09.839Z,28.99
2017-11-14T11:19:10.152Z,27.57
2017-11-14T11:20:09.795Z,28.61
2017-11-14T11:21:09.784Z,27.76
2017-11-14T11:22:10.111Z,26.53
2017-11-14T11:23:10.102Z,25.96
2017-11-14T11:24:10.077Z,25.67
2017-11-14T11:25:09.721Z,25.86
2017-11-14T11:26:09.705Z,25.97
2017-11-14T11:27:09.692Z,27.87
2017-11-14T11:28:09.679Z,29
2017-11-14T11:29:10.013Z,28.53
2017-11-14T11:30:09.992Z,28.15
2017-11-14T11:31:09.981Z,26.35
2017-11-14T11:32:09.619Z,25.59
2017-11-14T11:33:09.953Z,25.68
2017-11-14T11:34:09.592Z,28.25
2017-11-14T11:35:09.576Z,28.25
2017-11-14T11:36:09.941Z,29.19
2017-11-14T11:37:09.543Z,31.47
2017-11-14T11:38:09.542Z,31.85
2017-11-14T11:39:09.517Z,30.14
2017-11-14T11:40:09.506Z,28.63
2017-11-14T11:41:09.499Z,27.77
2017-11-14T11:42:09.473Z,27.3
2017-11-14T11:43:09.808Z,29.57
2017-11-14T11:44:09.453Z,30.33
2017-11-14T11:45:09.769Z,29.29
2017-11-14T11:46:09.415Z,29.38
2017-11-14T11:47:09.748Z,28.15
2017-11-14T11:48:09.386Z,28.15
2017-11-14T11:49:09.729Z,26.16
2017-11-14T11:50:09.363Z,25.49
2017-11-14T11:51:09.343Z,24.55
2017-11-14T11:52:09.700Z,25.31
2017-11-14T11:53:09.314Z,26.92
2017-11-14T11:54:09.301Z,27.87
2017-11-14T11:55:09.285Z,27.68
2017-11-14T11:56:09.277Z,25.4
2017-11-14T11:57:09.597Z,26.64
2017-11-14T11:58:09.589Z,26.24
2017-11-14T11:59:09.571Z,25.29
2017-11-14T12:00:09.575Z,24.16
2017-11-14T12:01:09.205Z,23.02
2017-11-14T12:02:09.182Z,21.88
2017-11-14T12:03:09.169Z,21.5
2017-11-14T12:04:09.496Z,18.95
2017-11-14T12:05:09.153Z,16.96
2017-11-14T12:06:09.476Z,15.16
2017-11-14T12:07:09.111Z,13.83
2017-11-14T12:08:09.100Z,13.17
2017-11-14T12:09:09.428Z,13.83
2017-11-14T12:10:09.408Z,13.45
2017-11-14T12:11:09.395Z,13.83
2017-11-14T12:12:09.380Z,13.35
2017-11-14T12:13:09.032Z,13.26
2017-11-14T12:14:09.015Z,13.17
2017-11-14T12:15:08.990Z,12.98
2017-11-14T12:16:08.977Z,11.46
2017-11-14T12:17:09.325Z,10.14
2017-11-14T12:18:08.947Z,10.33
2017-11-14T12:19:08.933Z,10.42
2017-11-14T12:20:08.916Z,9.85
2017-11-14T12:21:09.244Z,9
2017-11-14T12:22:08.888Z,8.34
2017-11-14T12:23:08.873Z,8.24
2017-11-14T12:24:09.203Z,8.72
2017-11-14T12:25:09.186Z,7.67
2017-11-14T12:26:09.191Z,6.73
2017-11-14T12:27:09.167Z,6.06
2017-11-14T12:28:09.234Z,4.83
2017-11-14T12:29:08.782Z,4.07
2017-11-14T12:30:08.771Z,3.69
2017-11-14T12:31:08.756Z,4.64
2017-11-14T12:32:08.751Z,8.62
2017-11-14T12:33:08.742Z,9.28
2017-11-14T12:34:08.711Z,9.09
2017-11-14T12:35:08.692Z,10.14
2017-11-14T12:36:09.022Z,13.35
2017-11-14T12:37:09.009Z,17.9
2017-11-14T12:38:08.650Z,18
2017-11-14T12:39:08.633Z,18.19
2017-11-14T12:40:08.622Z,18.66
2017-11-14T12:41:08.948Z,19.42
2017-11-14T12:42:08.933Z,18.95
2017-11-14T12:43:08.923Z,17.81
2017-11-14T12:44:08.900Z,17.71
2017-11-14T12:45:08.558Z,17.05
2017-11-14T12:46:08.533Z,18.86
2017-11-14T12:47:08.517Z,21.33
2017-11-14T12:48:08.501Z,21.8
2017-11-14T12:49:08.830Z,22.37
2017-11-14T12:50:08.840Z,29.57
2017-11-14T12:51:08.460Z,30.9
2017-11-14T12:52:08.783Z,28.8
2017-11-14T12:53:08.430Z,26.53
2017-11-14T12:54:08.412Z,23.02
2017-11-14T12:55:08.747Z,21.12
2017-11-14T12:56:08.384Z,20.95
2017-11-14T12:57:08.383Z,21.51
2017-11-14T12:58:08.354Z,24.74
2017-11-14T12:59:08.356Z,25.49
2017-11-14T13:00:08.604Z,25.12
2017-11-14T13:01:08.330Z,24.55
2017-11-14T13:02:08.297Z,24.84
2017-11-14T13:03:08.564Z,26.16
2017-11-14T13:04:08.540Z,25.97
2017-11-14T13:05:08.254Z,29.38
2017-11-14T13:06:08.238Z,31.66
2017-11-14T13:07:08.502Z,31.56
2017-11-14T13:08:08.208Z,30.52
2017-11-14T13:09:08.491Z,28.91
2017-11-14T13:10:08.181Z,33.37
2017-11-14T13:11:08.166Z,31.09
2017-11-14T13:12:08.150Z,30.33
2017-11-14T13:13:08.135Z,32.32
2017-11-14T13:14:08.124Z,35.07
2017-11-14T13:15:08.384Z,34.69
2017-11-14T13:16:08.095Z,40.19
2017-11-14T13:17:08.373Z,40
2017-11-14T13:18:08.343Z,40.38
2017-11-14T13:19:08.067Z,39.05
2017-11-14T13:20:08.326Z,39.43
2017-11-14T13:21:08.022Z,37.54
2017-11-14T13:22:08.013Z,36.87
2017-11-14T13:23:08.274Z,36.59
2017-11-14T13:24:07.980Z,35.83
2017-11-14T13:25:07.964Z,35.93
2017-11-14T13:26:08.228Z,34.31
2017-11-14T13:27:07.934Z,33.84
2017-11-14T13:28:08.202Z,34.59
2017-11-14T13:29:07.909Z,33.65
2017-11-14T13:30:08.172Z,32.04
2017-11-14T13:31:07.876Z,32.7
2017-11-14T13:32:07.865Z,30.62
2017-11-14T13:33:08.123Z,30.43
2017-11-14T13:34:07.832Z,29.37
2017-11-14T13:35:07.821Z,28.25
2017-11-14T13:36:07.807Z,27.09
2017-11-14T13:37:07.811Z,25.68
2017-11-14T13:38:07.777Z,25.58
2017-11-14T13:39:07.762Z,24.17
2017-11-14T13:40:08.030Z,24.17
2017-11-14T13:41:08.007Z,25.49
2017-11-14T13:42:07.725Z,26.07
2017-11-14T13:43:07.981Z,25.97
2017-11-14T13:44:07.978Z,26.07
2017-11-14T13:45:07.677Z,26.82
2017-11-14T13:46:07.933Z,28.91
2017-11-14T13:47:07.645Z,30.62
2017-11-14T13:48:07.631Z,29.1
2017-11-14T13:49:07.911Z,29.19
2017-11-14T13:50:07.604Z,29
2017-11-14T13:51:07.588Z,27.96
2017-11-14T13:52:07.853Z,27.11
2017-11-14T13:53:07.557Z,25.49
2017-11-14T13:54:07.546Z,24.55
2017-11-14T13:55:07.530Z,25.4
2017-11-14T13:56:07.798Z,25.78
2017-11-14T13:57:07.780Z,26.9
2017-11-14T13:58:07.761Z,25.86
2017-11-14T13:59:07.470Z,25.39
2017-11-14T14:00:07.469Z,23.3
2017-11-14T14:01:07.731Z,21.69
2017-11-14T14:02:07.710Z,19.8
2017-11-14T14:03:07.410Z,22.74
2017-11-14T14:04:07.396Z,21.69
2017-11-14T14:05:07.382Z,21.98
2017-11-14T14:06:07.368Z,22.45